Time;durP1;ratioP1;P1;durP2;ratioP2;P2;SDS_P1;SDS_P2;PMS_P1;PMS_P2;Temp;Humidity;BMP_temperature;BMP_pressure;BME280_temperature;BME280_humidity;BME280_pressure;Samples;Min_cycle;Max_cycle;Signal;HPM_P1;HPM_P2
2023/10/18 00:00:24;;;;;;;13.17;3.10;;;11.00;99.90;;;11.13;69.08;95126.91;5076107;28;20443;-64
2023/10/18 00:02:52;;;;;;;4.23;3.83;;;11.00;99.90;;;11.16;69.53;95114.44;5079663;28;20466;-55
2023/10/18 00:05:21;;;;;;;3.83;2.37;;;11.00;99.90;;;11.18;69.65;95123.03;5083578;28;20460;-56
2023/10/18 00:07:51;;;;;;;5.20;3.57;;;11.00;99.90;;;11.18;69.33;95121.22;5081522;28;20526;-56
2023/10/18 00:10:21;;;;;;;7.03;3.03;;;11.10;99.90;;;11.18;69.58;95123.84;5081126;28;20838;-64
2023/10/18 00:12:49;;;;;;;3.30;3.10;;;11.10;99.90;;;11.19;69.22;95122.06;5081165;28;20529;-62
2023/10/18 00:15:16;;;;;;;5.90;3.40;;;11.10;99.90;;;11.18;69.41;95117.75;5081145;28;20484;-57
2023/10/18 00:17:44;;;;;;;3.70;3.40;;;11.10;99.90;;;11.18;69.58;95123.03;5079271;28;20832;-64
2023/10/18 00:20:15;;;;;;;4.00;2.83;;;11.10;99.90;;;11.19;69.25;95119.44;5080556;28;20463;-64
2023/10/18 00:22:43;;;;;;;3.20;2.97;;;11.10;99.90;;;11.19;69.51;95108.91;5080852;28;20465;-64
2023/10/18 00:25:12;;;;;;;2.77;2.57;;;11.10;99.90;;;11.20;69.40;95111.41;5080847;28;20530;-66
2023/10/18 00:27:41;;;;;;;4.70;3.17;;;11.10;99.90;;;11.19;69.47;95108.91;5081362;28;20535;-64
2023/10/18 00:30:11;;;;;;;4.43;3.73;;;11.00;99.90;;;11.19;69.28;95108.91;5081045;28;20963;-57
2023/10/18 00:32:39;;;;;;;3.53;2.70;;;11.10;99.90;;;11.18;69.59;95097.53;5080232;28;20474;-64
2023/10/18 00:35:18;;;;;;;10.83;3.33;;;11.10;99.90;;;11.17;69.80;95100.28;5081216;28;20501;-56
2023/10/18 00:37:46;;;;;;;5.03;3.77;;;11.10;99.90;;;11.18;69.44;95105.41;5075377;28;20490;-63
2023/10/18 00:40:32;;;;;;;3.83;3.20;;;11.10;99.90;;;11.20;69.60;95100.88;5075409;28;20454;-56
2023/10/18 00:43:07;;;;;;;6.63;2.83;;;11.10;99.90;;;11.23;69.75;95094.47;5081716;28;20441;-63
2023/10/18 00:45:38;;;;;;;3.43;3.07;;;11.10;99.90;;;11.24;69.41;95096.16;5079283;28;20466;-63
2023/10/18 00:48:06;;;;;;;4.40;3.80;;;11.10;99.90;;;11.25;69.76;95097.81;5082849;28;20834;-57
2023/10/18 00:50:37;;;;;;;6.90;3.47;;;11.10;99.90;;;11.25;69.70;95095.19;5081514;28;20481;-65
2023/10/18 00:53:06;;;;;;;6.00;3.60;;;11.10;99.90;;;11.26;69.93;95105.59;5074372;28;20513;-64
2023/10/18 00:55:34;;;;;;;3.80;3.50;;;11.20;99.90;;;11.27;69.61;95109.03;5074602;28;20455;-64
2023/10/18 00:58:05;;;;;;;3.53;3.23;;;11.20;99.90;;;11.29;70.02;95107.09;5074997;28;20569;-57
2023/10/18 01:00:36;;;;;;;3.50;3.20;;;11.20;99.90;;;11.32;69.90;95106.81;5075855;28;20794;-57
2023/10/18 01:03:09;;;;;;;3.50;3.20;;;11.20;99.90;;;11.32;69.62;95098.91;5082466;28;20445;-64
2023/10/18 01:05:38;;;;;;;4.60;3.43;;;11.20;99.90;;;11.32;69.59;95093.66;5079560;28;20447;-64
2023/10/18 01:08:10;;;;;;;4.90;4.47;;;11.20;99.90;;;11.28;69.55;95089.66;5081371;28;20462;-61
2023/10/18 01:10:42;;;;;;;6.30;3.93;;;11.20;99.90;;;11.23;69.34;95089.22;5081677;28;20451;-64
2023/10/18 01:13:09;;;;;;;4.60;4.30;;;11.10;99.90;;;11.17;69.76;95092.41;5079335;28;20445;-56
2023/10/18 01:15:37;;;;;;;4.60;4.17;;;11.10;99.90;;;11.15;69.74;95089.09;5079987;28;20447;-63
2023/10/18 01:18:05;;;;;;;8.13;4.03;;;11.10;99.90;;;11.13;69.74;95092.66;5078400;28;21092;-65
2023/10/18 01:20:39;;;;;;;4.37;3.90;;;11.00;99.90;;;11.15;70.26;95094.34;5079972;28;20506;-65
2023/10/18 01:23:07;;;;;;;5.50;5.00;;;11.00;99.90;;;11.15;70.32;95089.91;5078778;28;20493;-65
2023/10/18 01:25:36;;;;;;;5.57;4.50;;;11.00;99.90;;;11.16;70.18;95091.56;5080543;28;20539;-57
2023/10/18 01:28:05;;;;;;;4.70;4.30;;;11.00;99.90;;;11.12;69.58;95091.03;5079867;28;20451;-56
2023/10/18 01:30:33;;;;;;;4.73;4.33;;;11.00;99.90;;;11.06;69.37;95094.22;5081376;28;20461;-65
2023/10/18 01:33:01;;;;;;;5.87;5.10;;;11.00;99.90;;;11.02;69.69;95098.06;5078505;28;20451;-57
2023/10/18 01:35:28;;;;;;;13.03;4.37;;;11.00;99.90;;;11.01;70.02;95101.66;5080676;28;20498;-63
2023/10/18 01:37:57;;;;;;;5.47;3.33;;;10.90;99.90;;;11.03;70.74;95098.91;5077272;28;20489;-64
2023/10/18 01:40:41;;;;;;;4.70;4.10;;;11.00;99.90;;;11.04;70.19;95097.94;5079437;28;21184;-65
2023/10/18 01:43:11;;;;;;;5.73;4.70;;;10.90;99.90;;;11.07;70.53;95095.84;5076472;28;20935;-63
2023/10/18 01:45:39;;;;;;;4.53;3.80;;;11.00;99.90;;;11.10;70.54;95098.22;5079908;28;20576;-57
2023/10/18 01:48:09;;;;;;;4.30;3.90;;;11.00;99.90;;;11.13;70.56;95102.38;5078963;28;20447;-65
2023/10/18 01:50:39;;;;;;;4.57;4.17;;;11.00;99.90;;;11.16;70.85;95103.91;5079846;28;20453;-58
2023/10/18 01:53:15;;;;;;;6.67;5.00;;;11.00;99.90;;;11.19;70.40;95099.19;5079481;28;20483;-57
2023/10/18 01:55:43;;;;;;;4.17;3.80;;;11.00;99.90;;;11.22;70.36;95092.84;5078118;28;20454;-57
2023/10/18 01:58:13;;;;;;;6.07;4.60;;;11.10;99.90;;;11.25;70.03;95092.56;5080192;28;20490;-64
2023/10/18 02:00:44;;;;;;;4.63;4.23;;;11.10;99.90;;;11.26;69.86;95095.06;5077943;28;20455;-57
2023/10/18 02:03:13;;;;;;;5.73;4.63;;;11.20;99.90;;;11.28;70.01;95102.81;5080850;28;20449;-64
2023/10/18 02:05:43;;;;;;;6.33;4.73;;;11.20;99.90;;;11.28;69.97;95102.81;5077059;28;20986;-56
2023/10/18 02:08:11;;;;;;;4.73;4.30;;;11.20;99.90;;;11.29;70.35;95104.47;5073148;28;20451;-57
2023/10/18 02:10:41;;;;;;;6.87;4.50;;;11.20;99.90;;;11.32;70.12;95109.44;5073294;28;20461;-64
2023/10/18 02:13:11;;;;;;;8.40;4.50;;;11.20;99.90;;;11.34;69.83;95109.31;5073844;28;20451;-57
2023/10/18 02:15:41;;;;;;;6.47;4.40;;;11.20;99.90;;;11.36;70.08;95102.13;5080980;28;20867;-57
2023/10/18 02:18:08;;;;;;;7.13;5.47;;;11.20;99.90;;;11.36;69.72;95100.31;5081090;28;20582;-63
2023/10/18 02:20:37;;;;;;;6.43;4.03;;;11.20;99.90;;;11.38;69.95;95105.44;5077030;28;20486;-56
2023/10/18 02:23:10;;;;;;;14.93;4.40;;;11.30;99.90;;;11.39;70.21;95100.03;5080268;28;20486;-55
2023/10/18 02:25:39;;;;;;;5.67;4.30;;;11.30;99.90;;;11.38;69.99;95095.72;5077898;28;20501;-57
2023/10/18 02:28:09;;;;;;;10.70;4.20;;;11.30;99.90;;;11.37;69.65;95107.25;5079247;28;20454;-57
2023/10/18 02:30:40;;;;;;;5.13;4.03;;;11.20;99.90;;;11.35;69.92;95098.63;5074543;28;20475;-64
2023/10/18 02:33:08;;;;;;;10.80;5.00;;;11.20;99.90;;;11.37;70.17;95101.13;5080328;28;20446;-57
2023/10/18 02:35:40;;;;;;;4.43;4.03;;;11.20;99.90;;;11.37;70.43;95104.63;5078581;28;20451;-63
2023/10/18 02:38:10;;;;;;;4.13;3.73;;;11.30;99.90;;;11.39;70.31;95099.22;5078143;28;20570;-64
2023/10/18 02:40:40;;;;;;;6.90;4.77;;;11.30;99.90;;;11.41;70.49;95105.16;5079102;28;20459;-57
2023/10/18 02:43:11;;;;;;;7.40;4.40;;;11.30;99.90;;;11.39;70.47;95094.75;5078075;28;20465;-56
2023/10/18 02:45:42;;;;;;;4.83;4.30;;;11.30;99.90;;;11.37;70.09;95090.59;5080487;28;20454;-62
2023/10/18 02:48:13;;;;;;;6.17;5.17;;;11.30;99.90;;;11.35;70.12;95101.28;5076947;28;20482;-56
2023/10/18 02:50:42;;;;;;;11.70;4.80;;;11.20;99.90;;;11.29;70.15;95093.94;5073237;28;20455;-58
2023/10/18 02:53:09;;;;;;;4.77;4.27;;;11.20;99.90;;;11.23;69.71;95090.06;5073546;28;20454;-57
2023/10/18 02:55:38;;;;;;;5.57;4.13;;;11.10;99.90;;;11.17;69.86;95084.50;5072604;28;20520;-64
2023/10/18 02:58:08;;;;;;;5.50;4.53;;;11.10;99.90;;;11.09;70.77;95093.94;5072990;28;20803;-65
2023/10/18 03:00:42;;;;;;;4.87;4.33;;;11.00;99.90;;;11.01;70.62;95090.31;5074680;28;20446;-64
2023/10/18 03:03:10;;;;;;;5.60;4.90;;;11.00;99.90;;;10.98;70.47;95088.78;5076753;28;20457;-64
2023/10/18 03:05:41;;;;;;;5.87;5.23;;;10.90;99.90;;;10.95;70.95;95089.06;5081392;28;20560;-65
2023/10/18 03:08:10;;;;;;;5.63;5.17;;;10.90;99.90;;;10.94;70.72;95079.50;5079375;28;20581;-57
2023/10/18 03:10:44;;;;;;;7.77;4.80;;;10.90;99.90;;;10.93;70.62;95089.19;5078112;28;20470;-64
2023/10/18 03:13:13;;;;;;;7.87;4.50;;;10.90;99.90;;;10.89;70.70;95082.56;5078929;28;20822;-56
2023/10/18 03:15:53;;;;;;;7.93;5.87;;;10.80;99.90;;;10.85;71.19;95085.59;5081601;28;20535;-57
2023/10/18 03:18:24;;;;;;;7.23;5.40;;;10.80;99.90;;;10.79;71.49;95075.63;5076691;28;20628;-63
2023/10/18 03:20:56;;;;;;;10.00;7.30;;;10.70;99.90;;;10.73;71.77;95093.59;5076747;28;20486;-64
2023/10/18 03:23:26;;;;;;;6.70;6.10;;;10.70;99.90;;;10.71;71.67;95095.53;5084469;28;20480;-65
2023/10/18 03:26:03;;;;;;;7.90;5.80;;;10.60;99.90;;;10.72;71.71;95091.09;5082539;28;20477;-64
2023/10/18 03:28:35;;;;;;;9.17;5.40;;;10.60;99.90;;;10.77;71.91;95083.63;5082243;28;20457;-65
2023/10/18 03:31:20;;;;;;;7.00;6.30;;;10.70;99.90;;;10.83;72.11;95079.63;5083194;28;20463;-56
2023/10/18 03:33:52;;;;;;;11.20;5.73;;;10.70;99.90;;;10.87;71.74;95083.66;5078628;28;20512;-63
2023/10/18 03:36:21;;;;;;;6.53;5.83;;;10.70;99.90;;;10.89;71.75;95081.69;5083834;28;20462;-63
2023/10/18 03:38:59;;;;;;;6.83;6.13;;;10.80;99.90;;;10.91;71.62;95066.63;5081639;28;20492;-56
2023/10/18 03:41:33;;;;;;;9.70;7.27;;;10.80;99.90;;;10.96;71.53;95059.16;5081147;28;20470;-55
2023/10/18 03:44:06;;;;;;;9.40;6.43;;;10.80;99.90;;;11.00;71.69;95064.97;5083861;28;20500;-57
2023/10/18 03:46:48;;;;;;;7.07;6.13;;;10.90;99.90;;;11.02;71.42;95071.75;5076309;28;20478;-57
2023/10/18 03:49:31;;;;;;;8.77;6.50;;;10.90;99.90;;;11.03;71.28;95078.69;5081812;28;20528;-63
2023/10/18 03:52:03;;;;;;;10.23;5.80;;;10.90;99.90;;;11.06;71.24;95080.19;5076217;28;20536;-57
2023/10/18 03:54:43;;;;;;;10.03;5.90;;;10.90;99.90;;;11.08;71.14;95084.38;5077679;28;20550;-62
2023/10/18 03:57:15;;;;;;;10.23;5.87;;;11.00;99.90;;;11.09;71.21;95064.97;5082136;28;20480;-62
2023/10/18 03:59:45;;;;;;;5.87;5.37;;;11.00;99.90;;;11.09;70.98;95061.50;5082630;28;20524;-57
2023/10/18 04:02:26;;;;;;;15.80;7.00;;;11.00;99.90;;;11.09;70.48;95057.09;5080758;28;21066;-55
2023/10/18 04:04:58;;;;;;;6.60;5.90;;;11.00;99.90;;;11.06;70.65;95062.63;5076838;28;20443;-57
2023/10/18 04:07:26;;;;;;;12.17;6.83;;;11.00;99.90;;;11.07;70.95;95073.97;5083264;28;21036;-56
2023/10/18 04:10:03;;;;;;;7.40;6.10;;;11.00;99.90;;;11.09;71.15;95064.13;5081450;28;20542;-57
2023/10/18 04:12:30;;;;;;;12.60;8.00;;;11.00;99.90;;;11.12;71.50;95058.59;5081501;28;20465;-60
2023/10/18 04:14:58;;;;;;;9.57;7.03;;;11.00;99.90;;;11.15;71.26;95057.50;5081424;28;20451;-58
2023/10/18 04:17:36;;;;;;;10.53;6.70;;;11.00;99.90;;;11.19;71.13;95053.63;5081390;28;20845;-57
2023/10/18 04:20:08;;;;;;;10.20;7.67;;;11.10;99.90;;;11.22;71.09;95061.25;5083047;28;20478;-61
2023/10/18 04:22:36;;;;;;;8.57;7.37;;;11.10;99.90;;;11.24;71.00;95064.56;5075603;28;20471;-62
2023/10/18 04:25:14;;;;;;;8.57;7.33;;;11.10;99.90;;;11.24;70.89;95059.28;5075520;28;20455;-57
2023/10/18 04:27:44;;;;;;;12.10;6.90;;;11.10;99.90;;;11.24;70.92;95061.91;5077518;28;20481;-62
2023/10/18 04:30:16;;;;;;;7.53;5.70;;;11.20;99.90;;;11.26;70.60;95062.59;5082240;28;20521;-57
2023/10/18 04:32:45;;;;;;;7.40;5.87;;;11.20;99.90;;;11.27;70.70;95066.91;5081265;28;20467;-57
2023/10/18 04:35:18;;;;;;;6.07;5.40;;;11.20;99.90;;;11.27;70.49;95059.00;5080794;28;20450;-56
2023/10/18 04:37:47;;;;;;;6.87;6.17;;;11.20;99.90;;;11.28;70.43;95065.94;5083769;28;20541;-62
2023/10/18 04:40:22;;;;;;;6.57;5.90;;;11.20;99.90;;;11.31;70.67;95078.84;5081721;28;20559;-61
2023/10/18 04:42:51;;;;;;;7.03;6.17;;;11.20;99.90;;;11.32;70.62;95063.88;5077070;28;20466;-57
2023/10/18 04:45:18;;;;;;;22.80;6.30;;;11.20;99.90;;;11.31;70.53;95063.03;5081951;28;20540;-61
2023/10/18 04:47:49;;;;;;;8.87;7.00;;;11.20;99.90;;;11.34;70.38;95065.41;5079171;28;20592;-57
2023/10/18 04:50:19;;;;;;;9.00;7.53;;;11.20;99.90;;;11.34;70.59;95073.28;5078558;28;20451;-55
2023/10/18 04:52:50;;;;;;;10.03;7.37;;;11.20;99.90;;;11.34;70.53;95073.28;5075157;28;20471;-60
2023/10/18 04:55:17;;;;;;;13.07;6.90;;;11.20;99.90;;;11.35;70.40;95079.38;5075493;28;20442;-62
2023/10/18 04:57:46;;;;;;;7.10;6.60;;;11.20;99.90;;;11.36;70.62;95088.97;5082149;28;20470;-62
2023/10/18 05:00:34;;;;;;;7.13;5.17;;;11.30;99.90;;;11.37;70.49;95087.97;5078757;28;20490;-57
2023/10/18 05:03:13;;;;;;;6.10;5.30;;;11.30;99.90;;;11.37;70.38;95095.88;5079610;28;20978;-56
2023/10/18 05:05:44;;;;;;;6.07;5.50;;;11.30;99.90;;;11.35;69.85;95093.38;5075441;28;20451;-57
2023/10/18 05:08:14;;;;;;;8.27;5.90;;;11.30;99.90;;;11.32;70.21;95104.19;5081196;28;20851;-57
2023/10/18 05:10:44;;;;;;;6.53;5.93;;;11.20;99.90;;;11.31;70.50;95113.06;5079435;28;20462;-61
2023/10/18 05:13:19;;;;;;;11.47;5.47;;;11.20;99.90;;;11.35;70.50;95121.50;5080796;28;20830;-56
2023/10/18 05:15:50;;;;;;;9.50;6.23;;;11.20;99.90;;;11.38;70.70;95115.97;5080128;28;20438;-57
2023/10/18 05:18:23;;;;;;;10.53;5.97;;;11.30;99.90;;;11.41;70.22;95124.41;5069093;28;20447;-61
2023/10/18 05:20:57;;;;;;;6.83;5.50;;;11.30;99.90;;;11.43;70.69;95119.88;5064272;28;20455;-61
2023/10/18 05:23:25;;;;;;;9.63;6.47;;;11.30;99.90;;;11.45;70.44;95131.09;5066265;28;20584;-62
2023/10/18 05:26:04;;;;;;;14.40;6.40;;;11.30;99.90;;;11.47;70.37;95144.94;5070376;28;20974;-58
2023/10/18 05:28:46;;;;;;;11.20;6.63;;;11.40;99.90;;;11.50;70.35;95148.28;5075393;28;20454;-60
2023/10/18 05:34:04;;;;;;;8.87;5.60;;;11.40;99.90;;;11.55;70.15;95140.78;5077066;28;20418;-58
2023/10/18 05:36:36;;;;;;;5.73;5.23;;;11.40;99.90;;;11.58;70.67;95137.88;5077020;28;20528;-57
2023/10/18 05:39:19;;;;;;;12.60;5.33;;;11.50;99.90;;;11.63;70.43;95138.28;5078755;28;20531;-56
2023/10/18 05:41:45;;;;;;;7.27;5.20;;;11.50;99.90;;;11.69;70.51;95137.72;5073214;28;20478;-61
2023/10/18 05:44:13;;;;;;;8.27;5.37;;;11.60;99.90;;;11.71;70.02;95141.06;5075406;28;20546;-57
2023/10/18 05:46:41;;;;;;;7.90;5.77;;;11.60;99.90;;;11.72;70.07;95136.63;5076935;28;21028;-61
2023/10/18 05:49:16;;;;;;;9.50;5.67;;;11.60;99.90;;;11.74;69.93;95135.53;5081103;28;20879;-61
2023/10/18 05:51:57;;;;;;;6.60;5.67;;;11.60;99.90;;;11.74;69.86;95124.97;5074545;28;20465;-61
2023/10/18 05:54:28;;;;;;;8.90;5.80;;;11.60;99.90;;;11.71;69.52;95120.00;5080385;28;20531;-62
2023/10/18 05:56:56;;;;;;;7.73;5.50;;;11.60;99.90;;;11.68;69.30;95135.22;5077487;28;20467;-61
2023/10/18 05:59:31;;;;;;;6.07;5.37;;;11.60;99.90;;;11.63;69.57;95130.38;5080229;28;21009;-61
2023/10/18 06:02:00;;;;;;;9.33;6.20;;;11.60;99.90;;;11.57;69.82;95125.66;5073699;28;20474;-58
2023/10/18 06:04:37;;;;;;;13.93;5.20;;;11.50;99.90;;;11.59;69.61;95132.47;5080321;28;20446;-55
2023/10/18 06:07:09;;;;;;;6.43;5.50;;;11.50;99.90;;;11.58;69.45;95133.44;5078873;28;20467;-61
2023/10/18 06:09:45;;;;;;;7.10;5.50;;;11.50;99.90;;;11.58;69.28;95140.50;5079302;28;20529;-60
2023/10/18 06:12:14;;;;;;;5.30;4.60;;;11.50;99.90;;;11.55;69.51;95144.25;5079619;28;20535;-58
2023/10/18 06:14:44;;;;;;;8.00;4.93;;;11.50;99.90;;;11.54;69.59;95139.97;5078354;28;20451;-61
2023/10/18 06:17:19;;;;;;;6.30;4.80;;;11.50;99.90;;;11.58;70.11;95130.78;5080550;28;20470;-57
2023/10/18 06:19:50;;;;;;;8.53;4.97;;;11.50;99.90;;;11.66;69.67;95143.28;5069572;28;20482;-60
2023/10/18 06:22:27;;;;;;;10.90;5.80;;;11.60;99.90;;;11.74;69.80;95146.06;5077505;28;20971;-61
2023/10/18 06:24:55;;;;;;;5.20;4.60;;;11.60;99.90;;;11.82;69.60;95153.25;5079102;28;20471;-57
2023/10/18 06:27:23;;;;;;;12.37;5.60;;;11.70;99.90;;;11.88;69.62;95152.66;5078083;28;20479;-62
2023/10/18 06:29:53;;;;;;;6.37;5.03;;;11.70;99.90;;;11.98;69.18;95156.16;5079037;28;20902;-61
2023/10/18 06:32:24;;;;;;;7.10;4.77;;;11.80;99.90;;;12.07;68.99;95153.66;5079029;28;21010;-61
2023/10/18 06:34:57;;;;;;;5.13;4.70;;;11.90;99.90;;;12.13;68.50;95156.56;5078887;28;20473;-60
2023/10/18 06:37:31;;;;;;;9.57;5.73;;;12.00;99.90;;;12.19;68.10;95156.00;5080160;28;20829;-61
2023/10/18 06:39:59;;;;;;;6.20;5.30;;;12.00;99.90;;;12.26;68.07;95160.69;5073083;28;20474;-61
2023/10/18 06:42:27;;;;;;;5.37;4.87;;;12.10;99.90;;;12.30;67.98;95162.91;5066701;28;20790;-58
2023/10/18 06:44:56;;;;;;;5.20;4.50;;;12.20;99.90;;;12.35;67.85;95157.22;5072105;28;20455;-57
2023/10/18 06:47:31;;;;;;;5.53;5.03;;;12.20;99.90;;;12.39;67.54;95161.19;5074222;28;20480;-58
2023/10/18 06:50:04;;;;;;;6.10;5.37;;;12.20;99.90;;;12.42;67.39;95157.44;5069018;28;20536;-62
2023/10/18 06:52:44;;;;;;;7.47;4.47;;;12.30;99.90;;;12.44;66.81;95147.56;5075866;28;20470;-62
2023/10/18 06:55:15;;;;;;;6.57;4.53;;;12.30;99.90;;;12.47;66.73;95155.19;5074418;28;20642;-62
2023/10/18 06:57:45;;;;;;;6.43;4.70;;;12.30;99.90;;;12.44;66.82;95153.72;5078238;28;20498;-63
2023/10/18 07:00:16;;;;;;;5.20;4.70;;;12.30;99.90;;;12.42;66.81;95155.63;5084131;28;20998;-62
2023/10/18 07:02:44;;;;;;;4.67;4.23;;;12.30;99.90;;;12.42;66.47;95158.28;5076209;28;20461;-63
2023/10/18 07:05:13;;;;;;;6.13;4.67;;;12.30;99.90;;;12.40;66.62;95168.16;5072732;28;20954;-58
2023/10/18 07:07:41;;;;;;;6.47;4.37;;;12.30;99.90;;;12.36;66.80;95164.97;5073842;28;20528;-62
2023/10/18 07:10:30;;;;;;;6.70;4.70;;;12.30;99.90;;;12.38;66.65;95175.38;5068769;28;20624;-61
2023/10/18 07:13:02;;;;;;;8.83;4.63;;;12.30;99.90;;;12.44;66.54;95174.81;5077016;28;20447;-63
2023/10/18 07:15:33;;;;;;;5.23;4.47;;;12.30;99.90;;;12.50;66.54;95171.59;5073072;28;20454;-57
2023/10/18 07:18:06;;;;;;;7.63;5.67;;;12.30;99.90;;;12.54;66.23;95170.31;5081737;28;20900;-58
2023/10/18 07:20:35;;;;;;;8.30;4.97;;;12.40;99.90;;;12.54;66.08;95169.50;5070248;28;20528;-62
2023/10/18 07:23:02;;;;;;;5.47;4.90;;;12.40;99.90;;;12.57;66.31;95173.66;5083780;28;20472;-62
2023/10/18 07:25:32;;;;;;;5.00;4.60;;;12.40;99.90;;;12.60;65.81;95163.63;5076813;28;20458;-61
2023/10/18 07:28:01;;;;;;;14.93;4.80;;;12.50;99.90;;;12.68;66.25;95171.66;5068866;28;20444;-57
2023/10/18 07:30:37;;;;;;;8.43;4.23;;;12.50;99.90;;;12.77;66.25;95169.97;5070788;28;20651;-63
2023/10/18 07:33:09;;;;;;;5.73;4.30;;;12.60;99.90;;;12.89;65.76;95163.50;5073942;28;20488;-60
2023/10/18 07:35:39;;;;;;;5.53;5.03;;;12.70;99.90;;;12.99;65.09;95162.63;5081651;28;20440;-62
2023/10/18 07:38:09;;;;;;;6.03;5.37;;;12.80;99.90;;;13.05;65.32;95162.03;5075051;28;20447;-61
2023/10/18 07:40:40;;;;;;;4.30;3.90;;;12.90;99.90;;;13.09;64.75;95169.50;5075250;28;21067;-56
2023/10/18 07:43:12;;;;;;;4.87;4.17;;;13.00;99.90;;;13.07;64.63;95171.47;5068304;28;20579;-57
2023/10/18 07:45:40;;;;;;;5.57;4.00;;;12.90;99.90;;;13.05;64.79;95162.84;5078437;28;20481;-57
2023/10/18 07:48:11;;;;;;;4.57;4.17;;;12.90;99.90;;;13.05;64.59;95162.84;5070878;28;20450;-58
2023/10/18 07:50:42;;;;;;;4.80;4.40;;;12.90;99.90;;;13.07;64.56;95152.16;5071252;28;20451;-57
2023/10/18 07:53:12;;;;;;;6.03;5.17;;;12.90;99.90;;;13.12;64.29;95147.28;5065251;28;20447;-56
2023/10/18 07:55:41;;;;;;;6.17;5.50;;;13.00;99.90;;;13.22;64.69;95147.19;5074151;28;20539;-56
2023/10/18 07:58:21;;;;;;;8.60;5.50;;;13.00;99.90;;;13.37;64.70;95155.44;5074941;28;20462;-57
2023/10/18 08:03:30;;;;;;;7.27;5.80;;;13.40;99.90;;;13.75;64.04;95164.06;5069277;28;20439;-58
2023/10/18 08:06:04;;;;;;;11.63;4.90;;;13.50;99.90;;;13.91;63.62;95163.38;5072902;28;20554;-55
2023/10/18 08:08:32;;;;;;;9.90;4.13;;;13.70;99.90;;;14.07;62.96;95162.69;5069090;28;20507;-56
2023/10/18 08:10:59;;;;;;;8.17;5.70;;;13.90;99.90;;;14.18;62.69;95161.63;5075702;28;20486;-58
2023/10/18 08:13:28;;;;;;;6.40;4.90;;;14.00;99.60;;;14.24;62.34;95164.47;5067600;28;20448;-57
2023/10/18 08:15:56;;;;;;;5.67;5.03;;;14.00;99.10;;;14.34;62.53;95165.19;5074581;28;20590;-66
2023/10/18 08:18:39;;;;;;;6.50;5.00;;;14.20;99.20;;;14.41;61.84;95175.16;5079075;28;20524;-57
2023/10/18 08:21:08;;;;;;;7.83;5.50;;;14.20;98.80;;;14.45;61.50;95166.75;5078156;28;20496;-63
2023/10/18 08:23:36;;;;;;;8.97;5.60;;;14.20;98.60;;;14.45;61.20;95169.41;5063099;28;22007;-62
2023/10/18 08:26:06;;;;;;;6.90;4.90;;;14.30;98.30;;;14.45;61.19;95164.09;5073285;28;20467;-62
2023/10/18 08:28:39;;;;;;;7.77;5.23;;;14.20;98.20;;;14.51;61.09;95170.56;5067506;28;20498;-63
2023/10/18 08:31:17;;;;;;;8.20;4.80;;;14.30;98.00;;;14.48;60.83;95161.16;5073839;28;20834;-61
2023/10/18 08:33:45;;;;;;;5.07;4.67;;;14.30;97.80;;;14.51;60.61;95173.22;5075601;28;20947;-61
2023/10/18 08:36:14;;;;;;;5.60;4.83;;;14.30;97.60;;;14.52;60.47;95172.25;5077643;28;20474;-60
2023/10/18 08:38:42;;;;;;;5.60;4.57;;;14.40;97.50;;;14.55;60.88;95174.56;5078151;28;20458;-60
2023/10/18 08:41:16;;;;;;;7.00;5.40;;;14.40;97.70;;;14.58;60.23;95171.63;5073879;28;20495;-61
2023/10/18 08:44:02;;;;;;;7.10;5.67;;;14.40;97.30;;;14.55;60.13;95171.94;5069731;28;20455;-57
2023/10/18 08:46:29;;;;;;;5.73;4.93;;;14.40;97.10;;;14.54;60.24;95178.19;5072636;28;20462;-56
2023/10/18 08:48:57;;;;;;;5.53;5.03;;;14.40;97.20;;;14.59;60.46;95173.25;5081875;28;20454;-56
2023/10/18 08:51:29;;;;;;;9.27;4.57;;;14.40;97.50;;;14.68;60.59;95182.13;5077800;28;21175;-56
2023/10/18 08:53:57;;;;;;;5.13;4.63;;;14.50;97.60;;;14.76;60.12;95178.69;5071572;28;20584;-56
2023/10/18 08:56:32;;;;;;;6.43;4.80;;;14.50;97.10;;;14.83;59.84;95177.88;5074759;28;20585;-58
2023/10/18 08:59:00;;;;;;;6.30;4.33;;;14.60;97.00;;;14.90;59.56;95180.72;5074314;28;20449;-57
2023/10/18 09:01:34;;;;;;;4.83;4.43;;;14.70;96.80;;;14.95;59.27;95177.59;5078489;28;20490;-57
2023/10/18 09:04:00;;;;;;;5.27;4.70;;;14.70;96.60;;;14.99;59.37;95179.78;5071264;28;20942;-57
2023/10/18 09:06:31;;;;;;;5.10;4.60;;;14.80;96.60;;;15.05;58.75;95179.13;5079217;28;20894;-55
2023/10/18 09:09:05;;;;;;;6.67;4.97;;;14.80;96.10;;;15.06;58.69;95180.81;5057656;28;20848;-56
2023/10/18 09:11:33;;;;;;;5.90;4.90;;;14.90;96.00;;;15.08;58.54;95185.13;5078750;28;20475;-56
2023/10/18 09:14:08;;;;;;;4.50;4.10;;;14.90;95.80;;;15.05;58.17;95181.78;5076221;28;20454;-56
2023/10/18 09:16:39;;;;;;;8.43;5.10;;;14.90;95.30;;;14.98;58.58;95191.38;5080786;28;20480;-55
2023/10/18 09:19:07;;;;;;;8.17;5.40;;;14.80;95.40;;;14.92;58.80;95194.66;5071789;28;20455;-56
2023/10/18 09:21:50;;;;;;;7.97;5.10;;;14.80;95.70;;;14.90;58.87;95193.16;5073162;28;21177;-57
2023/10/18 09:24:23;;;;;;;5.63;4.70;;;14.80;95.60;;;14.92;58.75;95199.97;5067938;28;20475;-57
2023/10/18 09:26:51;;;;;;;6.23;4.67;;;14.70;95.80;;;14.94;58.87;95197.97;5074004;28;20481;-57
2023/10/18 09:29:19;;;;;;;5.40;4.67;;;14.70;95.70;;;14.97;59.07;95195.00;5079369;28;20447;-57
2023/10/18 09:31:52;;;;;;;7.80;4.50;;;14.80;95.90;;;14.98;58.87;95186.06;5080443;28;20548;-57
2023/10/18 09:34:20;;;;;;;5.10;4.60;;;14.80;96.10;;;14.96;58.63;95173.97;5074097;28;20939;-58
2023/10/18 09:36:56;;;;;;;16.90;5.13;;;14.80;95.70;;;15.00;58.76;95176.13;5068292;28;20470;-58
2023/10/18 09:39:24;;;;;;;4.70;4.27;;;14.80;95.70;;;15.04;58.55;95174.84;5072254;28;20809;-58
2023/10/18 09:41:52;;;;;;;4.83;4.47;;;14.90;95.70;;;15.08;58.39;95171.88;5063383;28;20483;-57
2023/10/18 09:44:20;;;;;;;4.70;4.27;;;14.90;95.40;;;15.10;58.47;95169.88;5070750;28;20449;-56
2023/10/18 09:46:48;;;;;;;12.00;4.60;;;14.90;95.30;;;15.17;58.21;95170.91;5060473;28;20999;-56
2023/10/18 09:49:21;;;;;;;6.57;4.70;;;15.00;95.40;;;15.22;58.35;95169.41;5068668;28;20770;-58
2023/10/18 09:51:53;;;;;;;5.53;4.70;;;15.00;95.10;;;15.22;57.77;95152.69;5074352;28;20471;-56
2023/10/18 09:54:22;;;;;;;5.03;4.53;;;15.00;95.00;;;15.23;58.05;95154.38;5077050;28;20560;-58
2023/10/18 09:56:54;;;;;;;10.43;5.83;;;15.00;95.10;;;15.23;58.09;95147.25;5072201;28;20876;-63
2023/10/18 09:59:26;;;;;;;10.10;5.77;;;15.10;95.30;;;15.29;58.04;95151.06;5069183;28;20534;-59
2023/10/18 10:01:57;;;;;;;16.40;6.10;;;15.10;95.10;;;15.38;58.04;95144.81;5065187;28;20544;-61
2023/10/18 10:04:25;;;;;;;5.73;5.17;;;15.20;95.00;;;15.46;57.74;95144.00;5068633;28;20439;-61
2023/10/18 10:06:55;;;;;;;6.30;5.40;;;15.20;94.90;;;15.52;57.65;95143.34;5077442;28;20960;-62
2023/10/18 10:09:29;;;;;;;24.60;6.50;;;15.30;94.70;;;15.56;57.65;95138.53;5072206;28;20452;-62
2023/10/18 10:11:56;;;;;;;13.40;5.80;;;15.40;94.80;;;15.58;57.10;95128.56;5079279;28;20865;-61
2023/10/18 10:14:23;;;;;;;13.27;6.70;;;15.40;94.40;;;15.59;57.14;95130.25;5070831;28;20447;-62
2023/10/18 10:16:56;;;;;;;7.57;5.37;;;15.40;94.40;;;15.65;56.85;95129.59;5070999;28;20471;-61
2023/10/18 10:19:28;;;;;;;5.20;4.80;;;15.40;94.30;;;15.71;56.99;95130.75;5058982;28;20574;-61
2023/10/18 10:22:04;;;;;;;5.97;5.37;;;15.50;94.10;;;15.77;57.13;95130.94;5066439;28;20507;-63
2023/10/18 10:24:35;;;;;;;9.67;6.07;;;15.60;94.30;;;15.83;56.88;95126.78;5063299;28;20457;-61
2023/10/18 10:27:21;;;;;;;6.97;5.33;;;15.60;94.00;;;15.92;56.51;95128.44;5072716;28;20513;-61
2023/10/18 10:29:56;;;;;;;5.70;5.10;;;15.70;93.70;;;15.98;56.37;95113.69;5076653;28;20438;-63
2023/10/18 10:32:26;;;;;;;9.90;5.27;;;15.80;93.60;;;16.05;56.23;95108.53;5074869;28;21203;-61
2023/10/18 10:35:14;;;;;;;7.37;5.77;;;15.80;93.50;;;16.11;56.39;95113.19;5077983;28;20461;-62
2023/10/18 10:37:47;;;;;;;8.83;5.60;;;15.90;93.40;;;16.11;56.04;95116.69;5072495;28;20565;-61
2023/10/18 10:40:35;;;;;;;6.30;5.30;;;15.90;93.10;;;16.06;56.12;95116.34;5073306;28;20470;-60